Time;durP1;ratioP1;P1;durP2;ratioP2;P2;SDS_P1;SDS_P2;PMS_P1;PMS_P2;Temp;Humidity;BMP_temperature;BMP_pressure;BME280_temperature;BME280_humidity;BME280_pressure;Samples;Min_cycle;Max_cycle;Signal;HPM_P1;HPM_P2
2022/01/08 00:00:31;;;;;;;5.67;5.17;;;1.70;45.50;;;;;;5047249;28;20917;-56
2022/01/08 00:02:58;;;;;;;5.17;4.77;;;1.70;42.50;;;;;;5044220;28;20541;-57
2022/01/08 00:05:26;;;;;;;6.13;5.50;;;1.60;42.60;;;;;;5045184;28;20458;-57
2022/01/08 00:07:54;;;;;;;5.63;5.00;;;1.60;37.90;;;;;;5049980;28;20565;-56
2022/01/08 00:10:22;;;;;;;5.37;4.87;;;1.60;34.90;;;;;;5048821;28;20473;-56
2022/01/08 00:12:49;;;;;;;6.47;5.97;;;1.60;30.40;;;;;;5054512;28;20458;-55
2022/01/08 00:15:16;;;;;;;5.60;5.20;;;1.50;26.20;;;;;;5048009;28;20464;-57
2022/01/08 00:17:43;;;;;;;6.80;6.30;;;1.50;22.10;;;;;;5052243;28;21218;-56
2022/01/08 00:20:11;;;;;;;9.17;5.73;;;1.50;86.30;;;;;;5050034;28;20577;-56
2022/01/08 00:22:39;;;;;;;5.90;5.50;;;1.40;99.90;;;;;;5046599;28;20568;-56
2022/01/08 00:25:06;;;;;;;5.27;4.87;;;1.30;99.90;;;;;;5049393;28;20504;-55
2022/01/08 00:27:33;;;;;;;6.30;5.70;;;1.30;99.90;;;;;;5048084;28;20549;-56
2022/01/08 00:30:00;;;;;;;5.63;4.90;;;1.30;99.90;;;;;;5045034;28;20560;-56
2022/01/08 00:32:26;;;;;;;5.20;4.80;;;1.30;99.90;;;;;;5046039;28;20545;-55
2022/01/08 00:34:53;;;;;;;6.27;5.77;;;1.30;99.90;;;;;;5046915;28;20709;-55
2022/01/08 00:37:19;;;;;;;5.80;5.40;;;1.30;99.90;;;;;;5048528;28;20552;-56
2022/01/08 00:39:48;;;;;;;5.40;5.10;;;1.30;99.90;;;;;;5044613;28;20601;-56
2022/01/08 00:42:15;;;;;;;5.90;5.40;;;1.20;99.90;;;;;;5033115;28;20555;-57
2022/01/08 00:44:41;;;;;;;6.33;5.73;;;1.20;99.90;;;;;;5047951;28;20537;-55
2022/01/08 00:47:08;;;;;;;5.90;5.40;;;1.30;99.90;;;;;;5043130;28;20465;-55
2022/01/08 00:49:35;;;;;;;5.67;5.27;;;1.20;99.90;;;;;;5045584;28;20553;-55
2022/01/08 00:52:02;;;;;;;5.00;4.70;;;1.20;99.90;;;;;;5046211;28;20447;-56
2022/01/08 00:54:29;;;;;;;6.07;5.57;;;1.20;99.90;;;;;;5040973;28;20540;-54
2022/01/08 00:56:58;;;;;;;4.97;4.67;;;1.20;99.90;;;;;;5047915;28;20549;-56
2022/01/08 00:59:24;;;;;;;5.20;4.80;;;1.20;99.90;;;;;;5047610;28;20489;-57
2022/01/08 01:01:51;;;;;;;5.63;5.23;;;1.10;99.90;;;;;;5049811;28;20523;-56
2022/01/08 01:04:17;;;;;;;4.90;4.53;;;1.10;99.90;;;;;;5048767;28;20560;-56
2022/01/08 01:06:44;;;;;;;4.70;4.40;;;1.10;99.90;;;;;;5046645;28;20557;-56
2022/01/08 01:09:10;;;;;;;3.90;3.70;;;1.10;99.90;;;;;;5048338;28;20975;-56
2022/01/08 01:11:37;;;;;;;4.43;4.13;;;1.10;99.90;;;;;;5047118;28;20576;-56
2022/01/08 01:14:05;;;;;;;4.10;3.90;;;1.00;99.90;;;;;;5046164;28;20577;-56
2022/01/08 01:16:31;;;;;;;3.87;3.67;;;1.10;99.90;;;;;;5049074;28;20541;-57
2022/01/08 01:19:00;;;;;;;4.53;4.23;;;1.10;99.90;;;;;;5048818;28;20520;-56
2022/01/08 01:21:27;;;;;;;4.00;3.80;;;1.00;99.90;;;;;;5046194;28;20565;-57
2022/01/08 01:23:54;;;;;;;4.13;3.93;;;1.00;99.90;;;;;;5044299;28;20512;-56
2022/01/08 01:26:24;;;;;;;4.13;3.83;;;1.00;99.90;;;;;;5049278;28;20461;-56
2022/01/08 01:28:56;;;;;;;4.50;3.97;;;1.00;99.90;;;;;;5045464;28;20468;-56
2022/01/08 01:42:39;;;;;;;4.37;4.17;;;1.10;99.90;;;;;;5047592;28;21012;-56
2022/01/08 01:47:55;;;;;;;4.60;4.30;;;1.10;99.90;;;;;;5048795;28;20457;-57
2022/01/08 01:50:22;;;;;;;3.87;3.67;;;1.10;99.90;;;;;;5041487;28;21073;-56
2022/01/08 01:52:49;;;;;;;5.40;5.00;;;1.10;99.90;;;;;;5041398;28;20551;-56
2022/01/08 01:55:15;;;;;;;4.50;4.20;;;1.10;99.90;;;;;;5044958;28;20916;-56
2022/01/08 01:57:42;;;;;;;4.20;3.90;;;1.10;99.90;;;;;;5040318;28;21004;-56
2022/01/08 02:00:09;;;;;;;4.80;4.50;;;1.10;99.90;;;;;;5046897;28;20598;-57
2022/01/08 02:02:36;;;;;;;4.30;4.00;;;1.10;99.90;;;;;;5046006;28;20532;-56
2022/01/08 02:05:04;;;;;;;5.00;4.73;;;1.10;99.90;;;;;;5048483;28;20544;-57
2022/01/08 02:07:31;;;;;;;4.43;4.07;;;1.10;99.90;;;;;;5051009;28;21125;-57
2022/01/08 02:09:57;;;;;;;4.30;4.00;;;1.10;99.90;;;;;;5046113;28;20479;-57
2022/01/08 02:12:24;;;;;;;4.77;4.47;;;1.10;99.90;;;;;;5050091;28;20890;-55
2022/01/08 02:14:51;;;;;;;4.70;4.40;;;1.10;99.90;;;;;;5049713;28;20527;-56
2022/01/08 02:17:19;;;;;;;3.73;3.60;;;1.10;99.90;;;;;;5054566;28;20450;-56
2022/01/08 02:19:46;;;;;;;4.50;4.20;;;1.10;99.90;;;;;;5049256;28;20589;-56
2022/01/08 02:22:16;;;;;;;3.97;3.70;;;1.10;99.90;;;;;;5052736;28;20535;-57
2022/01/08 02:24:44;;;;;;;4.23;3.97;;;1.10;99.90;;;;;;5046758;28;20481;-55
2022/01/08 02:27:11;;;;;;;3.90;3.70;;;1.10;99.00;;;;;;5054412;28;20482;-57
2022/01/08 02:29:38;;;;;;;5.30;4.60;;;1.20;99.90;;;;;;5042583;28;20553;-56
2022/01/08 02:32:08;;;;;;;4.83;4.63;;;1.10;99.90;;;;;;5038301;28;21330;-55
2022/01/08 02:34:36;;;;;;;4.87;4.47;;;1.10;99.90;;;;;;5049345;28;20912;-57
2022/01/08 02:37:03;;;;;;;5.07;4.77;;;1.10;99.90;;;;;;5049876;28;20463;-57
2022/01/08 02:39:37;;;;;;;4.80;4.40;;;1.10;99.90;;;;;;5048073;28;20531;-56
2022/01/08 02:42:05;;;;;;;4.40;4.20;;;1.10;99.90;;;;;;5053658;28;20457;-57
2022/01/08 02:44:32;;;;;;;4.90;4.60;;;1.10;99.90;;;;;;5047808;28;20497;-56
2022/01/08 02:46:58;;;;;;;4.97;4.67;;;1.10;99.90;;;;;;5048268;28;21006;-56
2022/01/08 02:49:25;;;;;;;5.50;4.50;;;1.10;99.90;;;;;;5042587;28;20545;-55
2022/01/08 02:51:52;;;;;;;5.30;4.80;;;1.10;99.90;;;;;;5040085;28;21021;-56
2022/01/08 02:54:18;;;;;;;5.17;4.83;;;1.10;98.60;;;;;;5045369;28;20501;-56
2022/01/08 02:56:48;;;;;;;5.43;5.03;;;1.10;99.90;;;;;;5046648;28;20496;-55
2022/01/08 02:59:16;;;;;;;5.13;4.80;;;1.10;98.80;;;;;;5044955;28;20912;-56
2022/01/08 03:01:44;;;;;;;4.87;4.57;;;1.10;93.90;;;;;;5049927;28;20564;-56
2022/01/08 03:04:10;;;;;;;4.50;4.30;;;1.10;94.00;;;;;;5042347;28;20494;-56
2022/01/08 03:06:37;;;;;;;5.57;5.17;;;1.10;93.60;;;;;;5048614;28;20975;-56
2022/01/08 03:09:04;;;;;;;5.07;4.77;;;1.10;90.70;;;;;;5048906;28;20553;-55
2022/01/08 03:11:31;;;;;;;4.80;4.50;;;1.20;88.40;;;;;;5047960;28;20585;-57
2022/01/08 03:13:59;;;;;;;5.13;4.70;;;1.20;91.30;;;;;;5052829;28;20959;-56
2022/01/08 03:16:26;;;;;;;5.47;5.10;;;1.20;94.50;;;;;;5047741;28;20550;-61
2022/01/08 03:18:53;;;;;;;6.10;5.63;;;1.20;99.90;;;;;;5049844;28;20550;-58
2022/01/08 03:21:21;;;;;;;4.63;4.33;;;1.20;99.90;;;;;;5048898;28;20573;-56
2022/01/08 03:23:53;;;;;;;5.50;5.10;;;1.20;99.90;;;;;;5049125;28;20462;-56
2022/01/08 03:26:22;;;;;;;6.20;5.80;;;1.10;99.90;;;;;;5048343;28;20467;-56
2022/01/08 03:28:48;;;;;;;5.90;5.40;;;1.10;99.30;;;;;;5047665;28;20545;-56
2022/01/08 03:31:17;;;;;;;6.37;5.60;;;1.10;94.50;;;;;;5046948;28;21072;-55
2022/01/08 03:33:44;;;;;;;6.27;5.77;;;1.10;97.30;;;;;;5050309;28;20496;-56
2022/01/08 03:36:12;;;;;;;6.57;5.97;;;1.10;96.40;;;;;;5039735;28;20494;-57
2022/01/08 03:38:39;;;;;;;8.30;7.60;;;1.00;98.30;;;;;;5047675;28;20585;-57
2022/01/08 03:41:06;;;;;;;8.13;7.33;;;1.00;97.50;;;;;;5048892;28;20577;-56
2022/01/08 03:43:32;;;;;;;7.40;6.70;;;1.00;88.60;;;;;;5052071;28;20557;-56
2022/01/08 03:46:00;;;;;;;6.93;6.23;;;1.00;89.70;;;;;;5044422;28;20544;-56
2022/01/08 03:48:31;;;;;;;6.13;5.60;;;1.00;86.60;;;;;;5046876;28;20548;-56
2022/01/08 03:50:58;;;;;;;6.30;5.80;;;1.00;90.80;;;;;;5050354;28;20531;-58
2022/01/08 03:53:26;;;;;;;6.83;6.07;;;1.10;84.00;;;;;;5048323;28;20545;-56
2022/01/08 03:55:54;;;;;;;6.30;5.77;;;1.10;86.60;;;;;;5043761;28;20553;-55
2022/01/08 03:58:21;;;;;;;6.43;5.97;;;1.10;88.60;;;;;;5041741;28;20541;-55
2022/01/08 04:00:48;;;;;;;5.77;5.27;;;1.20;89.10;;;;;;5047507;28;20576;-57
2022/01/08 04:03:18;;;;;;;6.57;5.97;;;1.20;89.50;;;;;;5047228;28;20562;-57
2022/01/08 04:05:46;;;;;;;7.40;6.80;;;1.30;88.50;;;;;;5045218;28;20843;-55
2022/01/08 04:08:13;;;;;;;6.63;6.13;;;1.30;93.80;;;;;;5041372;28;20458;-56
2022/01/08 04:10:39;;;;;;;6.47;6.00;;;1.30;98.40;;;;;;5046336;28;20553;-57
2022/01/08 04:13:11;;;;;;;6.23;5.77;;;1.30;99.90;;;;;;5046836;28;21164;-55
2022/01/08 04:15:41;;;;;;;6.10;5.60;;;1.30;99.90;;;;;;5048313;28;20462;-56
2022/01/08 04:18:09;;;;;;;5.37;5.00;;;1.30;99.90;;;;;;5046996;28;21006;-56
2022/01/08 04:20:50;;;;;;;5.40;5.10;;;1.40;99.90;;;;;;5050873;28;20568;-51
2022/01/08 04:23:21;;;;;;;6.17;5.67;;;1.40;99.90;;;;;;5047720;28;20993;-52
2022/01/08 04:25:48;;;;;;;6.60;6.13;;;1.40;99.90;;;;;;5047409;28;20846;-56
2022/01/08 04:28:14;;;;;;;6.27;5.77;;;1.30;99.90;;;;;;5043814;28;21241;-52
2022/01/08 04:30:41;;;;;;;7.30;6.70;;;1.30;99.90;;;;;;5044247;28;20546;-52
2022/01/08 04:33:08;;;;;;;6.90;6.20;;;1.40;99.90;;;;;;5045830;28;20565;-52
2022/01/08 04:35:34;;;;;;;6.53;6.03;;;1.40;99.90;;;;;;5049669;28;20569;-48
2022/01/08 04:38:01;;;;;;;6.30;5.70;;;1.40;99.90;;;;;;5048130;28;20552;-53
2022/01/08 04:40:29;;;;;;;6.10;5.60;;;1.40;99.90;;;;;;5049082;28;20551;-52
2022/01/08 04:42:56;;;;;;;7.23;6.50;;;1.40;99.90;;;;;;5047616;28;20553;-56
2022/01/08 04:45:27;;;;;;;6.83;6.13;;;1.40;99.90;;;;;;5042905;28;20964;-53
2022/01/08 04:47:54;;;;;;;7.00;6.40;;;1.40;99.90;;;;;;5042500;28;20458;-47
2022/01/08 04:50:21;;;;;;;6.93;6.13;;;1.40;99.90;;;;;;5048646;28;20568;-47
2022/01/08 04:52:47;;;;;;;7.27;6.10;;;1.40;99.90;;;;;;5048475;28;20548;-47
2022/01/08 04:55:14;;;;;;;6.83;6.13;;;1.40;99.90;;;;;;5051225;28;20486;-52
2022/01/08 04:57:42;;;;;;;10.43;6.20;;;1.40;99.90;;;;;;5047108;28;20638;-52
2022/01/08 05:00:09;;;;;;;6.60;5.90;;;1.40;99.90;;;;;;5047165;28;20569;-53
2022/01/08 05:02:36;;;;;;;6.83;6.23;;;1.40;99.90;;;;;;5049918;28;20553;-52
2022/01/08 05:05:04;;;;;;;7.03;6.43;;;1.40;99.90;;;;;;5048954;28;20466;-52
2022/01/08 05:07:30;;;;;;;8.13;7.30;;;1.40;99.90;;;;;;5050737;28;20548;-53
2022/01/08 05:09:57;;;;;;;8.40;7.53;;;1.40;99.90;;;;;;5046731;28;20605;-52
2022/01/08 05:12:23;;;;;;;6.60;6.10;;;1.40;99.90;;;;;;5044895;28;20565;-51
2022/01/08 05:14:51;;;;;;;7.50;6.80;;;1.40;99.90;;;;;;5048326;28;20446;-52
2022/01/08 05:17:18;;;;;;;7.13;6.53;;;1.40;99.90;;;;;;5046511;28;20978;-52
2022/01/08 05:19:48;;;;;;;6.57;5.93;;;1.40;99.90;;;;;;5042295;28;20872;-52
2022/01/08 05:22:23;;;;;;;6.43;5.93;;;1.40;99.90;;;;;;5046718;28;20448;-53
2022/01/08 05:24:49;;;;;;;6.87;6.27;;;1.50;99.90;;;;;;5042504;28;20453;-53
2022/01/08 05:27:17;;;;;;;7.27;6.63;;;1.40;99.90;;;;;;5051369;28;20525;-53
2022/01/08 05:29:45;;;;;;;6.37;5.97;;;1.50;99.90;;;;;;5046624;28;20515;-51
2022/01/08 05:32:16;;;;;;;7.33;6.77;;;1.50;99.90;;;;;;5050151;28;20461;-52
2022/01/08 05:34:43;;;;;;;7.13;6.43;;;1.50;99.90;;;;;;5044861;28;20515;-52
2022/01/08 05:37:10;;;;;;;7.30;6.60;;;1.50;99.90;;;;;;5045277;28;20482;-52
2022/01/08 05:39:37;;;;;;;6.63;6.00;;;1.50;99.90;;;;;;5042503;28;20608;-52
2022/01/08 05:42:05;;;;;;;8.10;6.73;;;1.50;99.90;;;;;;5054327;28;21023;-52
2022/01/08 05:44:32;;;;;;;7.60;7.00;;;1.50;99.90;;;;;;5050275;28;20508;-52
2022/01/08 05:46:58;;;;;;;8.17;7.37;;;1.50;99.90;;;;;;5051199;28;20549;-52
2022/01/08 05:49:26;;;;;;;8.07;6.83;;;1.50;99.90;;;;;;5051124;28;20497;-51
2022/01/08 05:51:53;;;;;;;6.90;6.30;;;1.50;99.90;;;;;;5051168;28;21051;-51
2022/01/08 05:54:19;;;;;;;10.13;6.87;;;1.50;99.90;;;;;;5052548;28;20580;-52
2022/01/08 05:56:46;;;;;;;6.80;6.17;;;1.50;99.90;;;;;;5042031;28;20629;-52
2022/01/08 05:59:12;;;;;;;7.83;7.03;;;1.50;99.90;;;;;;5046714;28;20490;-52
2022/01/08 06:01:39;;;;;;;7.63;6.93;;;1.50;99.90;;;;;;5044290;28;20579;-52
2022/01/08 06:04:05;;;;;;;8.20;7.10;;;1.50;99.90;;;;;;5052389;28;20545;-53
2022/01/08 06:06:33;;;;;;;8.43;7.63;;;1.50;99.90;;;;;;5050131;28;20478;-52
2022/01/08 06:09:00;;;;;;;7.33;6.73;;;1.50;99.90;;;;;;5051873;28;20880;-52
2022/01/08 06:11:26;;;;;;;8.70;7.80;;;1.50;99.90;;;;;;5049821;28;20577;-52
2022/01/08 06:13:53;;;;;;;7.80;7.00;;;1.50;99.90;;;;;;5053789;28;20916;-51
2022/01/08 06:16:19;;;;;;;7.53;6.93;;;1.50;99.90;;;;;;5047988;28;20545;-52
2022/01/08 06:18:46;;;;;;;8.87;7.97;;;1.50;99.90;;;;;;5047218;28;20553;-52
2022/01/08 06:21:12;;;;;;;8.03;7.20;;;1.50;99.90;;;;;;5050153;28;20601;-52
2022/01/08 06:23:40;;;;;;;7.93;7.07;;;1.60;99.90;;;;;;5051866;28;20569;-52
2022/01/08 06:26:08;;;;;;;8.07;6.50;;;1.50;99.90;;;;;;5052704;28;20557;-52
2022/01/08 06:28:35;;;;;;;9.73;7.50;;;1.60;99.90;;;;;;5049382;28;20473;-52
2022/01/08 06:31:02;;;;;;;8.10;7.30;;;1.60;99.90;;;;;;5052448;28;20477;-52
2022/01/08 06:33:28;;;;;;;8.30;6.10;;;1.60;99.90;;;;;;5044021;28;20545;-52
2022/01/08 06:35:55;;;;;;;7.13;6.43;;;1.50;99.90;;;;;;5046094;28;20568;-52
2022/01/08 06:38:22;;;;;;;7.70;6.73;;;1.50;99.90;;;;;;5051813;28;20504;-52
2022/01/08 06:40:50;;;;;;;7.50;6.77;;;1.50;99.90;;;;;;5048965;28;20512;-52
2022/01/08 06:43:16;;;;;;;6.80;6.20;;;1.50;99.90;;;;;;5052221;28;20553;-51
2022/01/08 06:45:43;;;;;;;8.73;7.50;;;1.60;99.90;;;;;;5050603;28;20489;-52
2022/01/08 06:48:09;;;;;;;7.53;6.80;;;1.50;99.90;;;;;;5047984;28;20568;-52
2022/01/08 06:50:36;;;;;;;9.93;6.93;;;1.50;99.90;;;;;;5052271;28;20934;-52
2022/01/08 06:53:02;;;;;;;6.50;6.00;;;1.50;99.90;;;;;;5043922;28;20540;-52
2022/01/08 06:55:29;;;;;;;6.93;6.43;;;1.50;99.90;;;;;;5048078;28;20490;-51
2022/01/08 06:57:58;;;;;;;8.03;7.13;;;1.50;99.90;;;;;;5045536;28;20459;-51
2022/01/08 07:00:24;;;;;;;11.00;7.47;;;1.50;99.90;;;;;;5048391;28;20525;-51
2022/01/08 07:02:51;;;;;;;7.47;6.80;;;1.50;99.90;;;;;;5051177;28;20898;-51
2022/01/08 07:05:18;;;;;;;7.87;7.17;;;1.50;99.90;;;;;;5045971;28;20458;-52
2022/01/08 07:07:45;;;;;;;7.33;6.80;;;1.50;99.90;;;;;;5044456;28;20567;-52
2022/01/08 07:10:11;;;;;;;8.10;6.73;;;1.50;99.90;;;;;;5052120;28;20581;-52
2022/01/08 07:12:38;;;;;;;7.03;6.33;;;1.50;99.90;;;;;;5041312;28;20493;-52
2022/01/08 07:15:08;;;;;;;8.00;7.33;;;1.50;99.90;;;;;;5051043;28;20470;-52
2022/01/08 07:17:34;;;;;;;8.23;7.20;;;1.50;99.90;;;;;;5043181;28;20581;-51
2022/01/08 07:20:01;;;;;;;7.07;6.47;;;1.60;99.90;;;;;;5050931;28;20481;-51
2022/01/08 07:22:29;;;;;;;7.20;6.60;;;1.60;99.90;;;;;;5050965;28;20513;-52
2022/01/08 07:24:55;;;;;;;7.60;7.00;;;1.60;99.90;;;;;;5042909;28;20477;-52
2022/01/08 07:27:22;;;;;;;8.63;6.90;;;1.60;99.90;;;;;;5047645;28;20545;-52
2022/01/08 07:29:48;;;;;;;6.67;6.17;;;1.60;99.90;;;;;;5045012;28;20882;-51
2022/01/08 07:32:16;;;;;;;8.30;7.47;;;1.60;99.90;;;;;;5051019;28;20486;-51
2022/01/08 07:34:43;;;;;;;7.50;6.40;;;1.60;99.90;;;;;;5051315;28;20529;-52
2022/01/08 07:37:09;;;;;;;6.40;5.90;;;1.60;99.90;;;;;;5050578;28;20501;-51
2022/01/08 07:39:36;;;;;;;7.70;7.00;;;1.50;99.90;;;;;;5052781;28;20546;-52
2022/01/08 07:42:03;;;;;;;6.40;5.80;;;1.50;99.90;;;;;;5050549;28;20995;-51
2022/01/08 07:44:29;;;;;;;7.50;6.80;;;1.40;99.90;;;;;;5051833;28;20688;-51
2022/01/08 07:46:57;;;;;;;6.47;5.87;;;1.40;99.90;;;;;;5045945;28;20558;-51
2022/01/08 07:49:24;;;;;;;8.40;6.57;;;1.40;99.90;;;;;;5047816;28;20454;-51
2022/01/08 07:51:51;;;;;;;8.80;6.80;;;1.40;99.90;;;;;;5052552;28;21044;-52
2022/01/08 07:54:17;;;;;;;8.30;6.97;;;1.40;99.90;;;;;;5048646;28;20549;-51
2022/01/08 07:56:44;;;;;;;6.50;5.90;;;1.40;99.90;;;;;;5039373;28;20554;-51
2022/01/08 07:59:10;;;;;;;6.53;6.03;;;1.50;99.90;;;;;;5048201;28;20500;-51
2022/01/08 08:01:37;;;;;;;6.40;5.90;;;1.50;99.90;;;;;;5046453;28;20576;-52
2022/01/08 08:04:04;;;;;;;7.90;7.30;;;1.50;99.90;;;;;;5047581;28;20541;-52
2022/01/08 08:06:36;;;;;;;8.40;7.70;;;1.50;99.90;;;;;;5043988;28;20538;-52
2022/01/08 08:09:03;;;;;;;8.57;7.77;;;1.50;99.90;;;;;;5037843;28;20458;-52
2022/01/08 08:11:29;;;;;;;8.23;7.43;;;1.60;99.90;;;;;;5043910;28;20542;-50
2022/01/08 08:13:56;;;;;;;9.40;7.80;;;1.60;99.90;;;;;;5047698;28;20557;-53
2022/01/08 08:16:22;;;;;;;8.60;7.70;;;1.60;99.90;;;;;;5042140;28;21005;-52
2022/01/08 08:18:49;;;;;;;7.70;6.40;;;1.60;99.90;;;;;;5041973;28;20563;-52
2022/01/08 08:21:15;;;;;;;8.97;8.17;;;1.60;99.90;;;;;;5044336;28;20597;-51
2022/01/08 08:23:43;;;;;;;8.50;7.70;;;1.70;99.90;;;;;;5051222;28;20545;-51
2022/01/08 08:26:10;;;;;;;9.50;8.63;;;1.70;99.90;;;;;;5051932;28;20540;-52
2022/01/08 08:28:36;;;;;;;11.33;10.00;;;1.70;99.90;;;;;;5049819;28;21046;-51
2022/01/08 08:31:03;;;;;;;12.70;11.40;;;1.80;99.90;;;;;;5048866;28;21046;-51
2022/01/08 08:33:30;;;;;;;15.83;11.73;;;1.70;99.90;;;;;;5042077;28;20524;-51
2022/01/08 08:35:56;;;;;;;12.37;11.20;;;1.70;99.90;;;;;;5049684;28;20967;-51
2022/01/08 08:38:23;;;;;;;12.37;11.10;;;1.70;99.90;;;;;;5046951;28;20545;-52
2022/01/08 08:40:51;;;;;;;13.80;12.40;;;1.70;99.90;;;;;;5044559;28;20584;-51
2022/01/08 08:43:19;;;;;;;12.90;11.67;;;1.70;99.90;;;;;;5049171;28;20568;-52
2022/01/08 08:45:46;;;;;;;12.97;11.67;;;1.70;99.90;;;;;;5045334;28;20544;-52
2022/01/08 08:48:13;;;;;;;12.77;10.43;;;1.60;99.90;;;;;;5049690;28;21019;-51
2022/01/08 08:50:40;;;;;;;10.93;9.80;;;1.60;99.90;;;;;;5047589;28;20513;-51
2022/01/08 08:53:06;;;;;;;10.80;9.70;;;1.60;99.90;;;;;;5045925;28;20896;-52
2022/01/08 08:55:33;;;;;;;10.80;9.70;;;1.60;99.90;;;;;;5042544;28;20919;-51
2022/01/08 08:58:01;;;;;;;11.80;9.47;;;1.60;99.90;;;;;;5043628;28;20493;-51
2022/01/08 09:00:27;;;;;;;9.03;8.27;;;1.70;99.90;;;;;;5041798;28;20604;-52
2022/01/08 09:02:54;;;;;;;8.90;8.07;;;1.70;99.90;;;;;;5041829;28;20573;-51
2022/01/08 09:05:21;;;;;;;9.97;8.33;;;1.70;99.90;;;;;;5045568;28;20488;-52
2022/01/08 09:07:47;;;;;;;10.43;9.33;;;1.70;99.90;;;;;;5047048;28;20540;-51
2022/01/08 09:10:15;;;;;;;12.17;10.87;;;1.80;99.90;;;;;;5049019;28;20482;-51
2022/01/08 09:12:43;;;;;;;13.67;10.40;;;1.70;99.90;;;;;;5042495;28;20453;-51
2022/01/08 09:15:12;;;;;;;10.90;9.80;;;1.70;99.90;;;;;;5046162;28;20485;-52
2022/01/08 09:17:40;;;;;;;12.90;10.97;;;1.70;99.90;;;;;;5047759;28;20465;-51
2022/01/08 09:20:09;;;;;;;11.60;9.93;;;1.70;99.90;;;;;;5049956;28;20493;-51
2022/01/08 09:22:36;;;;;;;11.63;9.60;;;1.80;99.90;;;;;;5052149;28;20573;-53
2022/01/08 09:25:04;;;;;;;13.27;10.40;;;1.80;99.90;;;;;;5045527;28;20462;-51
2022/01/08 09:27:30;;;;;;;12.57;10.43;;;1.80;99.90;;;;;;5052205;28;20563;-51
2022/01/08 09:29:57;;;;;;;11.67;10.47;;;1.90;99.90;;;;;;5050722;28;20576;-50
2022/01/08 09:32:26;;;;;;;12.80;11.00;;;1.90;99.90;;;;;;5045117;28;20468;-47
2022/01/08 09:34:53;;;;;;;16.40;10.70;;;1.90;99.90;;;;;;5050887;28;20871;-47
2022/01/08 09:37:20;;;;;;;17.73;12.20;;;2.00;99.90;;;;;;5048923;28;20566;-47
2022/01/08 09:39:46;;;;;;;11.10;10.00;;;1.90;99.90;;;;;;5050742;28;20514;-47
2022/01/08 09:42:13;;;;;;;10.20;9.17;;;1.90;99.90;;;;;;5050021;28;20598;-47
2022/01/08 09:44:44;;;;;;;13.87;9.40;;;2.00;99.90;;;;;;5050046;28;20465;-46
2022/01/08 09:47:11;;;;;;;12.00;9.73;;;2.10;99.90;;;;;;5050317;28;20566;-47
2022/01/08 09:49:39;;;;;;;11.03;9.77;;;2.30;99.90;;;;;;5050723;28;20550;-47
2022/01/08 09:52:07;;;;;;;12.27;9.50;;;2.40;99.90;;;;;;5053081;28;21007;-47
2022/01/08 09:54:35;;;;;;;9.80;8.90;;;2.90;99.90;;;;;;5050629;28;20462;-48
2022/01/08 09:57:02;;;;;;;10.80;9.43;;;3.60;38.40;;;;;;5050889;28;20532;-47
2022/01/08 09:59:29;;;;;;;11.90;10.20;;;4.70;99.90;;;;;;5053683;28;20915;-47
2022/01/08 10:01:58;;;;;;;12.70;9.57;;;5.50;83.20;;;;;;5057121;28;20990;-47
2022/01/08 10:04:26;;;;;;;11.80;8.83;;;6.30;99.90;;;;;;5040590;28;20955;-48
2022/01/08 10:07:17;;;;;;;11.67;10.60;;;6.80;99.90;;;;;;5041210;28;20483;-48
2022/01/08 10:10:01;;;;;;;10.57;8.63;;;6.90;99.90;;;;;;5048162;28;20577;-46
2022/01/08 10:12:40;;;;;;;9.80;8.43;;;7.20;56.70;;;;;;5048584;28;21690;-47
2022/01/08 10:18:03;;;;;;;10.07;8.63;;;6.70;27.70;;;;;;5013120;28;20441;-47
2022/01/08 10:20:34;;;;;;;9.83;8.90;;;5.60;99.90;;;;;;5046285;28;20588;-47
2022/01/08 10:23:13;;;;;;;10.40;8.30;;;4.90;99.90;;;;;;5045461;28;20481;-46
2022/01/08 10:25:42;;;;;;;14.03;8.90;;;4.70;99.90;;;;;;5044424;28;21160;-47
2022/01/08 10:28:09;;;;;;;18.57;11.50;;;4.60;99.90;;;;;;5047057;28;20519;-47
2022/01/08 10:30:36;;;;;;;13.20;10.40;;;4.30;99.90;;;;;;5044703;28;20568;-47
2022/01/08 10:33:02;;;;;;;11.03;9.13;;;4.10;84.60;;;;;;5043510;28;20546;-48
2022/01/08 10:35:49;;;;;;;11.90;10.00;;;3.50;20.40;;;;;;5040568;28;20544;-48
2022/01/08 10:38:17;;;;;;;9.27;8.47;;;3.50;99.90;;;;;;5049438;28;20983;-48
2022/01/08 10:40:44;;;;;;;9.67;8.70;;;3.50;99.90;;;;;;5042297;28;21033;-46
2022/01/08 10:43:25;;;;;;;9.00;8.03;;;3.40;99.90;;;;;;5046348;28;20572;-48
2022/01/08 10:45:52;;;;;;;8.93;8.07;;;3.30;99.90;;;;;;5051054;28;21219;-48
2022/01/08 10:48:30;;;;;;;9.03;8.10;;;3.30;99.90;;;;;;5044997;28;20990;-48
2022/01/08 10:51:19;;;;;;;10.53;8.63;;;3.40;99.90;;;;;;5046497;28;20514;-48
2022/01/08 10:54:10;;;;;;;9.90;9.00;;;3.50;99.90;;;;;;5042126;28;21042;-47
2022/01/08 10:56:39;;;;;;;9.53;8.00;;;3.40;99.90;;;;;;5038044;28;20587;-47
2022/01/08 10:59:10;;;;;;;10.90;9.43;;;3.50;99.90;;;;;;5040178;28;20560;-47
2022/01/08 11:01:50;;;;;;;9.47;8.60;;;3.50;99.90;;;;;;5046792;28;21064;-47
2022/01/08 11:04:18;;;;;;;10.50;9.50;;;3.50;99.90;;;;;;5045367;28;20462;-47
2022/01/08 11:06:57;;;;;;;8.87;7.97;;;3.30;99.90;;;;;;5044841;28;20540;-46
2022/01/08 11:09:28;;;;;;;13.70;8.90;;;3.20;99.90;;;;;;5040682;28;20599;-48
2022/01/08 11:11:56;;;;;;;9.77;8.50;;;3.10;99.90;;;;;;5040734;28;20506;-52
2022/01/08 11:14:48;;;;;;;11.10;9.83;;;3.00;99.90;;;;;;5037838;28;20494;-47
2022/01/08 11:17:18;;;;;;;10.30;8.07;;;2.80;99.90;;;;;;5044988;28;21020;-48
2022/01/08 11:19:47;;;;;;;8.50;7.70;;;2.70;99.90;;;;;;5047373;28;20462;-46
2022/01/08 11:22:15;;;;;;;8.87;8.03;;;2.70;99.90;;;;;;5050689;28;20514;-48
2022/01/08 11:24:57;;;;;;;9.03;8.20;;;2.70;99.90;;;;;;5048186;28;20905;-48
2022/01/08 11:27:27;;;;;;;10.60;8.63;;;2.60;99.90;;;;;;5047387;28;20490;-48
2022/01/08 11:30:03;;;;;;;9.00;7.83;;;2.60;99.90;;;;;;5033877;28;20457;-46
2022/01/08 11:32:30;;;;;;;9.77;7.67;;;2.60;99.90;;;;;;5041105;28;20466;-47
2022/01/08 11:34:58;;;;;;;8.77;6.90;;;2.50;99.90;;;;;;5041103;28;21042;-47
2022/01/08 11:37:25;;;;;;;7.50;6.80;;;2.30;99.90;;;;;;5042250;28;20461;-47
2022/01/08 11:39:53;;;;;;;6.43;5.60;;;2.30;99.90;;;;;;5048138;28;20489;-48
2022/01/08 11:42:22;;;;;;;10.13;6.00;;;2.30;99.90;;;;;;5046967;28;22122;-48
2022/01/08 11:44:50;;;;;;;6.77;5.97;;;2.40;99.90;;;;;;5042870;28;20912;-46
2022/01/08 11:47:18;;;;;;;6.33;5.70;;;2.50;99.90;;;;;;5040929;28;20544;-47
2022/01/08 11:49:46;;;;;;;6.40;5.53;;;2.40;99.90;;;;;;5044849;28;20504;-47
2022/01/08 11:52:21;;;;;;;8.90;6.53;;;2.40;99.90;;;;;;5040523;28;20472;-46
2022/01/08 11:54:49;;;;;;;7.47;5.90;;;2.50;99.90;;;;;;5040837;28;20920;-48
2022/01/08 11:57:19;;;;;;;10.60;6.40;;;2.50;99.90;;;;;;5044179;28;20489;-49
2022/01/08 11:59:47;;;;;;;9.90;6.93;;;2.60;99.90;;;;;;5046121;28;20545;-48
2022/01/08 12:02:14;;;;;;;10.00;6.70;;;2.60;99.90;;;;;;5043246;28;20888;-48
2022/01/08 12:04:44;;;;;;;11.40;6.10;;;2.50;99.90;;;;;;5038149;28;20454;-48
2022/01/08 12:07:34;;;;;;;7.30;6.57;;;2.60;99.90;;;;;;5049458;28;20462;-46
2022/01/08 12:10:22;;;;;;;7.43;6.47;;;2.60;99.90;;;;;;5038649;28;20500;-46
2022/01/08 12:12:54;;;;;;;6.73;6.23;;;2.70;99.90;;;;;;5042334;28;20626;-48
2022/01/08 12:15:47;;;;;;;10.57;7.90;;;2.70;99.90;;;;;;5045170;28;20458;-48
2022/01/08 12:18:16;;;;;;;12.30;7.40;;;2.80;99.90;;;;;;5048918;28;20461;-48
2022/01/08 12:20:45;;;;;;;10.83;7.60;;;2.80;99.90;;;;;;5036411;28;20485;-48
2022/01/08 12:23:39;;;;;;;7.93;7.13;;;2.80;99.90;;;;;;5041824;28;20584;-48
2022/01/08 12:26:09;;;;;;;8.03;6.20;;;2.80;99.90;;;;;;5008357;28;20533;-45
2022/01/08 12:28:56;;;;;;;10.30;7.10;;;2.80;99.90;;;;;;5039542;28;20504;-56
2022/01/08 12:31:24;;;;;;;6.53;5.93;;;2.90;99.90;;;;;;5036376;28;20481;-57
2022/01/08 12:34:19;;;;;;;7.63;6.07;;;2.90;28.90;;;;;;5039578;28;20509;-57
2022/01/08 12:36:54;;;;;;;8.97;6.00;;;3.10;28.70;;;;;;5038691;28;20511;-57
2022/01/08 12:39:26;;;;;;;6.30;5.80;;;3.10;34.60;;;;;;5046151;28;20491;-57
2022/01/08 12:42:22;;;;;;;9.03;6.80;;;3.10;41.20;;;;;;5041071;28;21061;-57
2022/01/08 12:44:58;;;;;;;8.20;6.33;;;3.20;99.90;;;;;;5044472;28;20548;-57
2022/01/08 12:47:42;;;;;;;7.80;6.73;;;3.20;28.50;;;;;;5043423;28;20481;-57
2022/01/08 12:50:30;;;;;;;11.07;6.43;;;3.20;20.40;;;;;;5044031;28;20521;-57
2022/01/08 12:53:14;;;;;;;6.70;6.10;;;3.20;42.10;;;;;;5039208;28;20513;-58
2022/01/08 12:55:42;;;;;;;6.73;5.80;;;3.20;31.70;;;;;;5042562;28;20541;-56
2022/01/08 12:58:16;;;;;;;11.03;6.20;;;3.20;42.00;;;;;;5044148;28;20468;-56
2022/01/08 13:00:59;;;;;;;9.60;5.53;;;3.20;49.70;;;;;;5043830;28;20481;-56
2022/01/08 13:03:28;;;;;;;6.80;6.10;;;3.20;43.50;;;;;;5042447;28;20568;-56
2022/01/08 13:05:55;;;;;;;6.23;5.60;;;3.10;31.00;;;;;;5045135;28;20469;-57
2022/01/08 13:08:24;;;;;;;8.43;5.33;;;3.10;31.40;;;;;;5046093;28;20545;-55
2022/01/08 13:10:57;;;;;;;7.33;6.00;;;3.00;99.90;;;;;;5042898;28;20860;-57
2022/01/08 13:13:24;;;;;;;7.97;6.10;;;3.10;99.90;;;;;;5043346;28;20512;-57
2022/01/08 13:15:51;;;;;;;7.33;5.47;;;3.00;99.90;;;;;;5036199;28;20470;-57
2022/01/08 13:18:21;;;;;;;10.03;6.30;;;3.10;99.90;;;;;;5036694;28;21172;-56
2022/01/08 13:20:59;;;;;;;7.23;5.47;;;3.00;20.20;;;;;;5038367;28;20592;-57